sensor_id;sensor_type;location;lat;lon;timestamp;pressure;altitude;pressure_sealevel;temperature;humidity
26657;BME280;14279;50.010;8.260;2023-02-18T00:00:35;101246.41;;;13.65;78.84
26657;BME280;14279;50.010;8.260;2023-02-18T00:03:00;101253.53;;;13.62;78.94
26657;BME280;14279;50.010;8.260;2023-02-18T00:05:28;101250.63;;;13.68;79.02
26657;BME280;14279;50.010;8.260;2023-02-18T00:07:53;101254.13;;;13.68;79.01
26657;BME280;14279;50.010;8.260;2023-02-18T00:10:19;101254.59;;;13.58;80.02
26657;BME280;14279;50.010;8.260;2023-02-18T00:12:44;101249.94;;;13.64;79.48
26657;BME280;14279;50.010;8.260;2023-02-18T00:15:10;101242.34;;;13.58;79.43
26657;BME280;14279;50.010;8.260;2023-02-18T00:17:35;101250.50;;;13.71;79.09
26657;BME280;14279;50.010;8.260;2023-02-18T00:20:01;101246.16;;;13.51;79.37
26657;BME280;14279;50.010;8.260;2023-02-18T00:22:26;101243.53;;;13.51;79.33
26657;BME280;14279;50.010;8.260;2023-02-18T00:24:52;101242.63;;;13.52;79.13
26657;BME280;14279;50.010;8.260;2023-02-18T00:27:17;101243.19;;;13.38;79.57
26657;BME280;14279;50.010;8.260;2023-02-18T00:29:43;101242.13;;;13.44;78.80
26657;BME280;14279;50.010;8.260;2023-02-18T00:32:08;101245.59;;;13.44;78.61
26657;BME280;14279;50.010;8.260;2023-02-18T00:34:33;101238.19;;;13.33;79.02
26657;BME280;14279;50.010;8.260;2023-02-18T00:36:58;101234.34;;;13.42;78.43
26657;BME280;14279;50.010;8.260;2023-02-18T00:39:24;101233.22;;;13.27;78.46
26657;BME280;14279;50.010;8.260;2023-02-18T00:41:49;101230.88;;;13.42;77.72
26657;BME280;14279;50.010;8.260;2023-02-18T00:44:14;101225.81;;;13.37;78.06
26657;BME280;14279;50.010;8.260;2023-02-18T00:46:40;101230.94;;;13.19;78.46
26657;BME280;14279;50.010;8.260;2023-02-18T00:49:05;101240.00;;;13.31;78.02
26657;BME280;14279;50.010;8.260;2023-02-18T00:51:31;101236.34;;;13.35;77.25
26657;BME280;14279;50.010;8.260;2023-02-18T00:53:57;101244.66;;;13.45;77.13
26657;BME280;14279;50.010;8.260;2023-02-18T00:56:22;101248.59;;;13.56;76.27
26657;BME280;14279;50.010;8.260;2023-02-18T00:58:48;101244.53;;;13.28;76.38
26657;BME280;14279;50.010;8.260;2023-02-18T01:01:13;101243.19;;;13.38;76.57
26657;BME280;14279;50.010;8.260;2023-02-18T01:03:40;101244.75;;;13.44;75.21
26657;BME280;14279;50.010;8.260;2023-02-18T01:06:06;101243.16;;;13.40;75.32
26657;BME280;14279;50.010;8.260;2023-02-18T01:08:33;101241.97;;;13.26;75.72
26657;BME280;14279;50.010;8.260;2023-02-18T01:10:59;101248.44;;;13.38;75.47
26657;BME280;14279;50.010;8.260;2023-02-18T01:13:25;101244.66;;;13.45;74.99
26657;BME280;14279;50.010;8.260;2023-02-18T01:15:51;101242.22;;;13.61;74.13
26657;BME280;14279;50.010;8.260;2023-02-18T01:18:17;101247.66;;;13.57;74.09
26657;BME280;14279;50.010;8.260;2023-02-18T01:20:43;101251.91;;;13.59;73.73
26657;BME280;14279;50.010;8.260;2023-02-18T01:23:10;101256.22;;;13.40;74.57
26657;BME280;14279;50.010;8.260;2023-02-18T01:25:36;101232.91;;;13.56;73.54
26657;BME280;14279;50.010;8.260;2023-02-18T01:28:02;101238.19;;;13.33;74.49
26657;BME280;14279;50.010;8.260;2023-02-18T01:30:28;101239.38;;;13.47;74.32
26657;BME280;14279;50.010;8.260;2023-02-18T01:32:54;101231.81;;;13.39;74.58
26657;BME280;14279;50.010;8.260;2023-02-18T01:35:20;101231.59;;;13.45;74.32
26657;BME280;14279;50.010;8.260;2023-02-18T01:37:45;101237.88;;;13.41;74.52
26657;BME280;14279;50.010;8.260;2023-02-18T01:40:13;101236.59;;;13.29;75.06
26657;BME280;14279;50.010;8.260;2023-02-18T01:42:38;101226.94;;;13.31;74.88
26657;BME280;14279;50.010;8.260;2023-02-18T01:45:39;101221.72;;;13.31;74.92
26657;BME280;14279;50.010;8.260;2023-02-18T01:50:50;101210.97;;;13.37;74.68
26657;BME280;14279;50.010;8.260;2023-02-18T01:53:21;101216.47;;;13.31;74.59
26657;BME280;14279;50.010;8.260;2023-02-18T01:55:48;101209.09;;;13.20;75.00
26657;BME280;14279;50.010;8.260;2023-02-18T01:58:13;101219.09;;;13.31;74.51
26657;BME280;14279;50.010;8.260;2023-02-18T02:00:39;101199.19;;;13.08;75.09
26657;BME280;14279;50.010;8.260;2023-02-18T02:03:05;101203.50;;;13.09;75.33
26657;BME280;14279;50.010;8.260;2023-02-18T02:05:31;101203.97;;;13.19;74.74
26657;BME280;14279;50.010;8.260;2023-02-18T02:07:57;101211.19;;;13.33;74.54
26657;BME280;14279;50.010;8.260;2023-02-18T02:10:27;101207.94;;;13.67;72.87
26657;BME280;14279;50.010;8.260;2023-02-18T02:13:05;101205.22;;;13.50;73.47
26657;BME280;14279;50.010;8.260;2023-02-18T02:19:08;101194.84;;;13.28;74.15
26657;BME280;14279;50.010;8.260;2023-02-18T02:25:15;101196.13;;;13.38;74.43
26657;BME280;14279;50.010;8.260;2023-02-18T02:27:58;101201.91;;;13.46;74.03
26657;BME280;14279;50.010;8.260;2023-02-18T02:30:51;101195.19;;;13.41;74.28
26657;BME280;14279;50.010;8.260;2023-02-18T02:36:12;101184.97;;;13.34;74.71
26657;BME280;14279;50.010;8.260;2023-02-18T02:38:44;101176.13;;;13.18;75.34
26657;BME280;14279;50.010;8.260;2023-02-18T02:44:10;101160.25;;;13.02;76.17
26657;BME280;14279;50.010;8.260;2023-02-18T02:46:43;101158.41;;;13.04;76.26
26657;BME280;14279;50.010;8.260;2023-02-18T02:51:48;101168.28;;;13.18;75.16
26657;BME280;14279;50.010;8.260;2023-02-18T02:54:24;101156.94;;;13.17;74.86
26657;BME280;14279;50.010;8.260;2023-02-18T02:57:04;101159.38;;;13.22;75.08
26657;BME280;14279;50.010;8.260;2023-02-18T02:59:30;101160.00;;;13.08;75.34
26657;BME280;14279;50.010;8.260;2023-02-18T03:02:27;101159.00;;;13.11;75.19
26657;BME280;14279;50.010;8.260;2023-02-18T03:05:07;101160.78;;;13.10;75.28
26657;BME280;14279;50.010;8.260;2023-02-18T03:13:11;101152.66;;;12.96;75.27
26657;BME280;14279;50.010;8.260;2023-02-18T03:15:55;101148.75;;;13.06;74.81
26657;BME280;14279;50.010;8.260;2023-02-18T03:18:40;101150.31;;;13.10;75.01
26657;BME280;14279;50.010;8.260;2023-02-18T03:23:37;101145.31;;;13.25;74.17
26657;BME280;14279;50.010;8.260;2023-02-18T03:26:05;101151.97;;;13.32;73.84
26657;BME280;14279;50.010;8.260;2023-02-18T03:28:32;101150.41;;;13.28;74.17
26657;BME280;14279;50.010;8.260;2023-02-18T03:31:03;101154.16;;;13.22;74.55
26657;BME280;14279;50.010;8.260;2023-02-18T03:33:42;101151.19;;;13.30;74.79
26657;BME280;14279;50.010;8.260;2023-02-18T03:36:10;101156.25;;;13.14;75.09
26657;BME280;14279;50.010;8.260;2023-02-18T03:38:39;101150.81;;;13.18;74.79
26657;BME280;14279;50.010;8.260;2023-02-18T03:41:06;101150.63;;;13.02;75.29
26657;BME280;14279;50.010;8.260;2023-02-18T03:43:32;101146.91;;;13.08;75.37
26657;BME280;14279;50.010;8.260;2023-02-18T03:45:58;101141.91;;;13.22;74.81
26657;BME280;14279;50.010;8.260;2023-02-18T03:48:24;101147.44;;;12.96;76.09
26657;BME280;14279;50.010;8.260;2023-02-18T03:50:49;101153.66;;;12.93;75.92
26657;BME280;14279;50.010;8.260;2023-02-18T03:53:14;101141.56;;;12.70;76.29
26657;BME280;14279;50.010;8.260;2023-02-18T03:55:40;101146.88;;;12.68;76.47
26657;BME280;14279;50.010;8.260;2023-02-18T03:58:05;101135.63;;;12.66;76.26
26657;BME280;14279;50.010;8.260;2023-02-18T04:00:30;101130.94;;;12.74;76.12
26657;BME280;14279;50.010;8.260;2023-02-18T04:02:55;101127.94;;;12.63;76.16
26657;BME280;14279;50.010;8.260;2023-02-18T04:05:20;101127.66;;;12.90;75.08
26657;BME280;14279;50.010;8.260;2023-02-18T04:07:46;101119.09;;;12.66;75.95
26657;BME280;14279;50.010;8.260;2023-02-18T04:10:11;101132.41;;;13.01;74.67
26657;BME280;14279;50.010;8.260;2023-02-18T04:12:36;101123.03;;;12.76;75.52
26657;BME280;14279;50.010;8.260;2023-02-18T04:15:02;101126.75;;;12.91;75.30
26657;BME280;14279;50.010;8.260;2023-02-18T04:17:27;101120.28;;;12.79;75.86
26657;BME280;14279;50.010;8.260;2023-02-18T04:19:52;101118.16;;;13.08;74.96
26657;BME280;14279;50.010;8.260;2023-02-18T04:22:18;101113.56;;;12.94;75.69
26657;BME280;14279;50.010;8.260;2023-02-18T04:24:43;101121.63;;;13.08;75.32
26657;BME280;14279;50.010;8.260;2023-02-18T04:27:08;101109.28;;;12.91;75.99
26657;BME280;14279;50.010;8.260;2023-02-18T04:29:33;101114.63;;;13.09;75.47
26657;BME280;14279;50.010;8.260;2023-02-18T04:31:59;101115.34;;;13.13;76.08
26657;BME280;14279;50.010;8.260;2023-02-18T04:34:24;101105.19;;;12.86;77.86
26657;BME280;14279;50.010;8.260;2023-02-18T04:36:49;101105.97;;;12.88;78.11
26657;BME280;14279;50.010;8.260;2023-02-18T04:39:15;101122.50;;;12.68;79.40
26657;BME280;14279;50.010;8.260;2023-02-18T04:41:40;101115.88;;;12.60;80.38
26657;BME280;14279;50.010;8.260;2023-02-18T04:44:05;101121.00;;;12.62;80.43
26657;BME280;14279;50.010;8.260;2023-02-18T04:46:31;101125.13;;;12.68;80.13
26657;BME280;14279;50.010;8.260;2023-02-18T04:48:56;101125.66;;;12.55;81.05
26657;BME280;14279;50.010;8.260;2023-02-18T04:51:21;101118.84;;;12.72;80.31
26657;BME280;14279;50.010;8.260;2023-02-18T04:53:47;101109.84;;;12.58;80.73
26657;BME280;14279;50.010;8.260;2023-02-18T04:56:12;101110.91;;;12.54;80.87
26657;BME280;14279;50.010;8.260;2023-02-18T04:58:37;101115.75;;;12.63;80.58
26657;BME280;14279;50.010;8.260;2023-02-18T05:01:03;101109.44;;;12.47;80.83
26657;BME280;14279;50.010;8.260;2023-02-18T05:03:31;101098.63;;;12.56;80.50
26657;BME280;14279;50.010;8.260;2023-02-18T05:05:56;101102.25;;;12.73;79.86
26657;BME280;14279;50.010;8.260;2023-02-18T05:08:22;101100.78;;;12.46;80.64
26657;BME280;14279;50.010;8.260;2023-02-18T05:10:47;101100.13;;;12.41;80.63
26657;BME280;14279;50.010;8.260;2023-02-18T05:13:12;101114.75;;;12.45;80.66
26657;BME280;14279;50.010;8.260;2023-02-18T05:15:38;101117.28;;;12.47;80.56
26657;BME280;14279;50.010;8.260;2023-02-18T05:18:03;101115.66;;;12.44;80.66
26657;BME280;14279;50.010;8.260;2023-02-18T05:20:28;101102.34;;;12.51;80.49
26657;BME280;14279;50.010;8.260;2023-02-18T05:22:54;101089.91;;;12.56;80.10
26657;BME280;14279;50.010;8.260;2023-02-18T05:25:19;101087.91;;;12.62;79.25
26657;BME280;14279;50.010;8.260;2023-02-18T05:27:44;101083.66;;;12.60;79.50
26657;BME280;14279;50.010;8.260;2023-02-18T05:30:09;101076.69;;;12.60;79.66
26657;BME280;14279;50.010;8.260;2023-02-18T05:32:35;101091.44;;;12.61;79.38
26657;BME280;14279;50.010;8.260;2023-02-18T05:35:00;101075.44;;;12.48;79.57
26657;BME280;14279;50.010;8.260;2023-02-18T05:37:25;101076.88;;;12.56;79.43
26657;BME280;14279;50.010;8.260;2023-02-18T05:39:50;101065.97;;;12.46;79.67
26657;BME280;14279;50.010;8.260;2023-02-18T05:42:16;101075.25;;;12.53;79.07
26657;BME280;14279;50.010;8.260;2023-02-18T05:44:41;101071.72;;;12.54;78.42
26657;BME280;14279;50.010;8.260;2023-02-18T05:47:09;101077.66;;;12.58;78.35
26657;BME280;14279;50.010;8.260;2023-02-18T05:49:35;101065.25;;;12.42;78.49
26657;BME280;14279;50.010;8.260;2023-02-18T05:52:02;101058.75;;;12.72;77.49
26657;BME280;14279;50.010;8.260;2023-02-18T05:54:27;101050.88;;;12.53;77.60
26657;BME280;14279;50.010;8.260;2023-02-18T05:56:53;101056.75;;;12.58;77.18
26657;BME280;14279;50.010;8.260;2023-02-18T05:59:18;101063.63;;;12.40;77.39
26657;BME280;14279;50.010;8.260;2023-02-18T06:01:44;101043.91;;;12.53;76.49
26657;BME280;14279;50.010;8.260;2023-02-18T06:04:10;101040.56;;;12.29;76.86
26657;BME280;14279;50.010;8.260;2023-02-18T06:06:35;101045.28;;;12.41;76.66
26657;BME280;14279;50.010;8.260;2023-02-18T06:09:01;101035.41;;;12.48;76.21
26657;BME280;14279;50.010;8.260;2023-02-18T06:11:26;101031.97;;;12.27;75.66
26657;BME280;14279;50.010;8.260;2023-02-18T06:13:51;101036.41;;;12.45;74.95
26657;BME280;14279;50.010;8.260;2023-02-18T06:16:17;101038.25;;;12.43;74.25
26657;BME280;14279;50.010;8.260;2023-02-18T06:18:42;101035.34;;;12.29;73.58
26657;BME280;14279;50.010;8.260;2023-02-18T06:21:07;101049.50;;;12.44;72.74
26657;BME280;14279;50.010;8.260;2023-02-18T06:23:32;101039.28;;;12.39;72.09
26657;BME280;14279;50.010;8.260;2023-02-18T06:25:58;101057.88;;;12.31;72.17
26657;BME280;14279;50.010;8.260;2023-02-18T06:28:23;101054.81;;;12.22;71.59
26657;BME280;14279;50.010;8.260;2023-02-18T06:30:49;101050.50;;;12.21;71.21
26657;BME280;14279;50.010;8.260;2023-02-18T06:33:14;101038.13;;;12.26;70.34
26657;BME280;14279;50.010;8.260;2023-02-18T06:35:39;101056.41;;;12.03;70.79
26657;BME280;14279;50.010;8.260;2023-02-18T06:38:05;101051.22;;;12.24;70.19
26657;BME280;14279;50.010;8.260;2023-02-18T06:40:31;101055.53;;;12.25;69.75
26657;BME280;14279;50.010;8.260;2023-02-18T06:42:56;101069.69;;;12.40;69.11
26657;BME280;14279;50.010;8.260;2023-02-18T06:45:21;101067.41;;;12.32;68.70
26657;BME280;14279;50.010;8.260;2023-02-18T06:47:47;101076.03;;;12.35;68.35
26657;BME280;14279;50.010;8.260;2023-02-18T06:50:12;101062.44;;;12.26;68.62
26657;BME280;14279;50.010;8.260;2023-02-18T06:52:37;101063.91;;;12.33;67.93
26657;BME280;14279;50.010;8.260;2023-02-18T06:55:04;101068.56;;;12.46;67.85
26657;BME280;14279;50.010;8.260;2023-02-18T06:57:29;101060.94;;;12.21;67.71
26657;BME280;14279;50.010;8.260;2023-02-18T06:59:55;101084.56;;;12.17;67.53
26657;BME280;14279;50.010;8.260;2023-02-18T07:02:20;101063.16;;;12.30;66.82
26657;BME280;14279;50.010;8.260;2023-02-18T07:04:45;101066.84;;;12.26;66.38
26657;BME280;14279;50.010;8.260;2023-02-18T07:07:10;101078.91;;;12.28;67.09
26657;BME280;14279;50.010;8.260;2023-02-18T07:09:36;101059.50;;;12.13;66.92
26657;BME280;14279;50.010;8.260;2023-02-18T07:12:01;101066.75;;;12.27;66.25
26657;BME280;14279;50.010;8.260;2023-02-18T07:14:26;101057.75;;;12.14;66.08
26657;BME280;14279;50.010;8.260;2023-02-18T07:16:52;101062.44;;;12.26;65.45
26657;BME280;14279;50.010;8.260;2023-02-18T07:19:17;101047.06;;;11.98;66.14
26657;BME280;14279;50.010;8.260;2023-02-18T07:21:43;101063.69;;;12.38;65.32
26657;BME280;14279;50.010;8.260;2023-02-18T07:24:08;101063.72;;;12.16;65.85
26657;BME280;14279;50.010;8.260;2023-02-18T07:26:33;101059.63;;;11.88;66.24
26657;BME280;14279;50.010;8.260;2023-02-18T07:28:58;101057.78;;;12.12;66.16
26657;BME280;14279;50.010;8.260;2023-02-18T07:31:24;101060.06;;;11.99;65.78
26657;BME280;14279;50.010;8.260;2023-02-18T07:33:49;101063.22;;;12.08;65.41
26657;BME280;14279;50.010;8.260;2023-02-18T07:36:14;101068.75;;;12.00;64.88
26657;BME280;14279;50.010;8.260;2023-02-18T07:38:39;101061.44;;;12.08;64.94
26657;BME280;14279;50.010;8.260;2023-02-18T07:41:05;101055.28;;;12.31;64.20
26657;BME280;14279;50.010;8.260;2023-02-18T07:43:30;101066.34;;;12.16;64.88
26657;BME280;14279;50.010;8.260;2023-02-18T07:45:55;101081.91;;;12.40;64.46
26657;BME280;14279;50.010;8.260;2023-02-18T07:48:20;101068.91;;;12.59;63.64
26657;BME280;14279;50.010;8.260;2023-02-18T07:50:45;101073.75;;;12.47;64.24
26657;BME280;14279;50.010;8.260;2023-02-18T07:53:12;101063.34;;;12.67;63.80
26657;BME280;14279;50.010;8.260;2023-02-18T07:55:38;101067.88;;;12.42;64.20
26657;BME280;14279;50.010;8.260;2023-02-18T07:58:26;101060.69;;;12.47;63.38
26657;BME280;14279;50.010;8.260;2023-02-18T08:00:52;101052.53;;;12.35;62.97
26657;BME280;14279;50.010;8.260;2023-02-18T08:03:20;101062.69;;;12.20;62.92
26657;BME280;14279;50.010;8.260;2023-02-18T08:05:47;101044.97;;;12.28;62.74
26657;BME280;14279;50.010;8.260;2023-02-18T08:08:15;101046.53;;;12.32;62.30
26657;BME280;14279;50.010;8.260;2023-02-18T08:10:41;101052.47;;;12.36;61.99
26657;BME280;14279;50.010;8.260;2023-02-18T08:13:07;101054.94;;;12.39;61.71
26657;BME280;14279;50.010;8.260;2023-02-18T08:15:32;101052.34;;;12.39;62.13
26657;BME280;14279;50.010;8.260;2023-02-18T08:17:57;101039.41;;;12.36;61.99
26657;BME280;14279;50.010;8.260;2023-02-18T08:20:22;101038.94;;;12.47;61.62
26657;BME280;14279;50.010;8.260;2023-02-18T08:22:48;101033.28;;;12.37;61.78
26657;BME280;14279;50.010;8.260;2023-02-18T08:25:13;101034.69;;;12.65;61.03
26657;BME280;14279;50.010;8.260;2023-02-18T08:27:38;101045.16;;;12.44;60.64
26657;BME280;14279;50.010;8.260;2023-02-18T08:30:04;101044.28;;;12.23;60.24
26657;BME280;14279;50.010;8.260;2023-02-18T08:32:29;101026.41;;;12.55;59.98
26657;BME280;14279;50.010;8.260;2023-02-18T08:34:55;101034.03;;;12.60;59.92
26657;BME280;14279;50.010;8.260;2023-02-18T08:37:20;101040.44;;;12.53;60.05
26657;BME280;14279;50.010;8.260;2023-02-18T08:39:45;101050.88;;;12.53;59.62
26657;BME280;14279;50.010;8.260;2023-02-18T08:42:10;101052.75;;;12.70;59.40
26657;BME280;14279;50.010;8.260;2023-02-18T08:44:36;101059.88;;;12.66;59.18
26657;BME280;14279;50.010;8.260;2023-02-18T08:47:01;101063.03;;;12.54;60.17
26657;BME280;14279;50.010;8.260;2023-02-18T08:49:26;101071.84;;;12.51;60.18
26657;BME280;14279;50.010;8.260;2023-02-18T08:51:51;101062.06;;;12.56;59.89
26657;BME280;14279;50.010;8.260;2023-02-18T08:54:17;101051.81;;;12.31;60.27
26657;BME280;14279;50.010;8.260;2023-02-18T08:56:42;101065.47;;;12.38;60.41
26657;BME280;14279;50.010;8.260;2023-02-18T08:59:08;101066.75;;;12.48;59.96
26657;BME280;14279;50.010;8.260;2023-02-18T09:01:33;101059.16;;;12.83;59.51
26657;BME280;14279;50.010;8.260;2023-02-18T09:03:58;101052.16;;;12.84;59.60
26657;BME280;14279;50.010;8.260;2023-02-18T09:06:24;101063.09;;;12.52;60.03
26657;BME280;14279;50.010;8.260;2023-02-18T09:08:49;101043.34;;;12.66;60.10
26657;BME280;14279;50.010;8.260;2023-02-18T09:11:15;101048.88;;;12.59;60.07
26657;BME280;14279;50.010;8.260;2023-02-18T09:13:41;101034.81;;;12.62;60.21
26657;BME280;14279;50.010;8.260;2023-02-18T09:16:10;101040.88;;;12.83;59.52
26657;BME280;14279;50.010;8.260;2023-02-18T09:18:35;101044.56;;;12.77;59.24
26657;BME280;14279;50.010;8.260;2023-02-18T09:21:03;101052.38;;;12.79;59.24
26657;BME280;14279;50.010;8.260;2023-02-18T09:23:30;101051.31;;;12.83;59.38
26657;BME280;14279;50.010;8.260;2023-02-18T09:25:56;101046.34;;;12.77;59.84
26657;BME280;14279;50.010;8.260;2023-02-18T09:28:22;101040.44;;;12.92;59.67
26657;BME280;14279;50.010;8.260;2023-02-18T09:30:48;101042.47;;;12.86;59.73
26657;BME280;14279;50.010;8.260;2023-02-18T09:33:13;101029.84;;;12.56;59.69
26657;BME280;14279;50.010;8.260;2023-02-18T09:35:43;101055.97;;;12.35;60.74
26657;BME280;14279;50.010;8.260;2023-02-18T09:38:11;101033.97;;;12.61;59.99
26657;BME280;14279;50.010;8.260;2023-02-18T09:40:41;101033.97;;;12.61;60.26
26657;BME280;14279;50.010;8.260;2023-02-18T09:43:17;101056.50;;;12.64;59.83
26657;BME280;14279;50.010;8.260;2023-02-18T09:45:45;101056.41;;;12.66;59.72
26657;BME280;14279;50.010;8.260;2023-02-18T09:48:10;101040.63;;;12.69;59.63
26657;BME280;14279;50.010;8.260;2023-02-18T09:50:36;101038.03;;;12.48;60.78
26657;BME280;14279;50.010;8.260;2023-02-18T09:53:02;101047.31;;;12.55;60.63
26657;BME280;14279;50.010;8.260;2023-02-18T09:55:31;101058.59;;;12.35;60.88
26657;BME280;14279;50.010;8.260;2023-02-18T09:58:24;101024.78;;;12.32;60.37
26657;BME280;14279;50.010;8.260;2023-02-18T10:00:51;101055.53;;;12.46;60.37
26657;BME280;14279;50.010;8.260;2023-02-18T10:03:20;101064.69;;;12.36;60.53
26657;BME280;14279;50.010;8.260;2023-02-18T10:05:59;101075.50;;;12.26;60.85
26657;BME280;14279;50.010;8.260;2023-02-18T10:08:29;101057.94;;;12.30;60.75
26657;BME280;14279;50.010;8.260;2023-02-18T10:10:56;101081.50;;;12.28;60.58
26657;BME280;14279;50.010;8.260;2023-02-18T10:13:24;101063.59;;;12.19;60.79
26657;BME280;14279;50.010;8.260;2023-02-18T10:15:50;101072.50;;;12.15;61.31
26657;BME280;14279;50.010;8.260;2023-02-18T10:18:25;101061.31;;;12.11;60.91
26657;BME280;14279;50.010;8.260;2023-02-18T10:20:52;101055.16;;;12.14;60.71
26657;BME280;14279;50.010;8.260;2023-02-18T10:23:20;101063.19;;;12.51;60.38
26657;BME280;14279;50.010;8.260;2023-02-18T10:25:47;101049.19;;;12.31;60.65
26657;BME280;14279;50.010;8.260;2023-02-18T10:28:13;101056.31;;;12.48;60.61
26657;BME280;14279;50.010;8.260;2023-02-18T10:30:45;101056.56;;;12.62;59.74
26657;BME280;14279;50.010;8.260;2023-02-18T10:33:44;101095.34;;;12.30;60.74
26657;BME280;14279;50.010;8.260;2023-02-18T10:36:20;101069.16;;;12.11;61.76
26657;BME280;14279;50.010;8.260;2023-02-18T10:41:40;101051.34;;;12.21;62.41
26657;BME280;14279;50.010;8.260;2023-02-18T10:44:39;101079.38;;;12.16;61.46
26657;BME280;14279;50.010;8.260;2023-02-18T10:47:21;101058.13;;;12.05;61.30
26657;BME280;14279;50.010;8.260;2023-02-18T10:50:01;101059.28;;;12.18;61.15
26657;BME280;14279;50.010;8.260;2023-02-18T10:52:36;101028.25;;;12.32;61.14
26657;BME280;14279;50.010;8.260;2023-02-18T10:55:06;101032.25;;;12.21;60.70
26657;BME280;14279;50.010;8.260;2023-02-18T10:57:33;101033.94;;;12.42;60.77
26657;BME280;14279;50.010;8.260;2023-02-18T11:00:15;101029.88;;;12.35;60.74
26657;BME280;14279;50.010;8.260;2023-02-18T11:02:41;101062.19;;;12.32;60.80
26657;BME280;14279;50.010;8.260;2023-02-18T11:05:22;101047.91;;;12.21;61.50
26657;BME280;14279;50.010;8.260;2023-02-18T11:07:55;101048.50;;;12.05;61.78
26657;BME280;14279;50.010;8.260;2023-02-18T11:10:29;101018.16;;;12.25;60.76
26657;BME280;14279;50.010;8.260;2023-02-18T11:12:59;101035.84;;;12.39;60.82
26657;BME280;14279;50.010;8.260;2023-02-18T11:15:26;101023.16;;;12.29;60.72
26657;BME280;14279;50.010;8.260;2023-02-18T11:18:42;101040.31;;;12.35;60.32
26657;BME280;14279;50.010;8.260;2023-02-18T11:20:54;101018.56;;;12.55;60.22
26657;BME280;14279;50.010;8.260;2023-02-18T11:23:20;101007.09;;;12.59;59.76
26657;BME280;14279;50.010;8.260;2023-02-18T11:26:12;101006.03;;;12.43;59.90
26657;BME280;14279;50.010;8.260;2023-02-18T11:28:45;101017.78;;;12.53;59.49
26657;BME280;14279;50.010;8.260;2023-02-18T11:31:19;101007.88;;;12.41;59.95
26657;BME280;14279;50.010;8.260;2023-02-18T11:33:54;101010.81;;;12.73;59.21
26657;BME280;14279;50.010;8.260;2023-02-18T11:36:28;101025.97;;;12.65;59.17
26657;BME280;14279;50.010;8.260;2023-02-18T11:38:56;101013.53;;;12.71;59.01
26657;BME280;14279;50.010;8.260;2023-02-18T11:41:59;101013.72;;;12.67;59.25
26657;BME280;14279;50.010;8.260;2023-02-18T11:44:31;101016.56;;;12.81;58.97
26657;BME280;14279;50.010;8.260;2023-02-18T11:47:16;101025.47;;;12.96;58.68
26657;BME280;14279;50.010;8.260;2023-02-18T11:50:02;101008.28;;;12.90;58.94
26657;BME280;14279;50.010;8.260;2023-02-18T11:52:34;100994.44;;;12.88;59.08
26657;BME280;14279;50.010;8.260;2023-02-18T11:57:42;100993.84;;;12.83;59.43
26657;BME280;14279;50.010;8.260;2023-02-18T12:03:05;100983.31;;;12.85;59.77
26657;BME280;14279;50.010;8.260;2023-02-18T12:05:33;100975.69;;;12.99;59.43
26657;BME280;14279;50.010;8.260;2023-02-18T12:08:26;100964.38;;;12.99;59.70
26657;BME280;14279;50.010;8.260;2023-02-18T12:10:53;100953.66;;;12.86;60.06
26657;BME280;14279;50.010;8.260;2023-02-18T12:13:42;100954.84;;;12.78;60.64
26657;BME280;14279;50.010;8.260;2023-02-18T12:16:44;100951.72;;;13.08;59.78
26657;BME280;14279;50.010;8.260;2023-02-18T12:19:42;100961.38;;;13.26;59.65
26657;BME280;14279;50.010;8.260;2023-02-18T12:22:38;100944.47;;;12.96;59.97
26657;BME280;14279;50.010;8.260;2023-02-18T12:30:59;100939.94;;;13.00;60.37
26657;BME280;14279;50.010;8.260;2023-02-18T12:42:39;100947.88;;;12.98;60.46
26657;BME280;14279;50.010;8.260;2023-02-18T12:45:29;100955.47;;;13.22;59.84
26657;BME280;14279;50.010;8.260;2023-02-18T12:48:04;100941.72;;;12.99;60.45
26657;BME280;14279;50.010;8.260;2023-02-18T12:53:57;100981.75;;;12.81;61.11
26657;BME280;14279;50.010;8.260;2023-02-18T12:56:45;100943.84;;;12.91;60.89
26657;BME280;14279;50.010;8.260;2023-02-18T13:07:59;100942.13;;;12.71;61.88
26657;BME280;14279;50.010;8.260;2023-02-18T13:10:43;100928.16;;;12.72;61.72
26657;BME280;14279;50.010;8.260;2023-02-18T13:16:16;100953.09;;;12.79;61.53
26657;BME280;14279;50.010;8.260;2023-02-18T13:18:49;100932.09;;;12.81;62.49
26657;BME280;14279;50.010;8.260;2023-02-18T13:21:20;100932.09;;;13.00;61.69
26657;BME280;14279;50.010;8.260;2023-02-18T13:23:56;100931.75;;;12.69;63.04
26657;BME280;14279;50.010;8.260;2023-02-18T13:26:23;100943.56;;;12.78;64.08
26657;BME280;14279;50.010;8.260;2023-02-18T13:29:14;100948.75;;;12.59;64.17
26657;BME280;14279;50.010;8.260;2023-02-18T13:32:02;100938.66;;;12.51;65.15
26657;BME280;14279;50.010;8.260;2023-02-18T13:37:29;100955.59;;;12.42;67.22
26657;BME280;14279;50.010;8.260;2023-02-18T13:39:59;100938.75;;;12.29;69.13
26657;BME280;14279;50.010;8.260;2023-02-18T13:42:32;100944.44;;;11.77;71.09
26657;BME280;14279;50.010;8.260;2023-02-18T13:45:06;100954.72;;;11.59;74.49
26657;BME280;14279;50.010;8.260;2023-02-18T13:50:48;100957.88;;;11.23;78.59
26657;BME280;14279;50.010;8.260;2023-02-18T13:53:23;100949.28;;;11.21;78.49
26657;BME280;14279;50.010;8.260;2023-02-18T13:56:31;100949.22;;;11.45;78.29
26657;BME280;14279;50.010;8.260;2023-02-18T13:59:10;100962.44;;;11.40;76.70
26657;BME280;14279;50.010;8.260;2023-02-18T14:01:41;100955.53;;;11.61;77.01
26657;BME280;14279;50.010;8.260;2023-02-18T14:10:31;100949.19;;;11.87;76.00
26657;BME280;14279;50.010;8.260;2023-02-18T14:18:26;100951.47;;;11.75;76.15
26657;BME280;14279;50.010;8.260;2023-02-18T14:20:51;100966.28;;;11.74;75.08
26657;BME280;14279;50.010;8.260;2023-02-18T14:28:43;100962.16;;;12.11;72.89